createdAt,value
2023-05-15T00:00:23.904Z,80
2023-05-15T00:30:25.678Z,80
2023-05-15T01:00:16.235Z,79
2023-05-15T01:30:20.041Z,83
2023-05-15T02:00:03.021Z,80
2023-05-15T02:30:13.927Z,81
2023-05-15T03:00:26.303Z,79
2023-05-15T03:30:28.444Z,80
2023-05-15T04:00:20.036Z,80
2023-05-15T04:30:19.737Z,80
2023-05-15T05:00:00.777Z,79
2023-05-15T05:30:06.402Z,77
2023-05-15T06:00:17.731Z,77
2023-05-15T06:30:01.615Z,79
2023-05-15T07:00:22.939Z,78
2023-05-15T07:30:14.026Z,76
2023-05-15T08:00:17.113Z,73
2023-05-15T08:30:08.417Z,74
2023-05-15T09:00:08.992Z,72
2023-05-15T09:30:28.982Z,66
2023-05-15T10:00:20.615Z,65
2023-05-15T10:30:14.152Z,71
2023-05-15T11:00:24.978Z,71
2023-05-15T11:30:27.100Z,71
2023-05-15T12:00:29.809Z,66
2023-05-15T12:30:21.548Z,74
2023-05-15T13:00:06.164Z,73
2023-05-15T14:00:25.491Z,66
2023-05-15T14:30:06.332Z,62
2023-05-15T15:00:10.468Z,67
2023-05-15T15:30:01.988Z,50
2023-05-15T16:00:22.400Z,48
2023-05-15T16:30:06.536Z,65
2023-05-15T17:00:27.730Z,64
2023-05-15T17:29:59.848Z,65
2023-05-15T18:00:02.378Z,67
2023-05-15T18:30:08.550Z,69
2023-05-15T19:00:15.411Z,73
2023-05-15T19:30:28.140Z,75
2023-05-15T20:00:30.037Z,76
2023-05-15T20:30:20.359Z,74
2023-05-15T21:00:03.190Z,73
2023-05-15T21:30:15.918Z,74
2023-05-15T22:00:28.806Z,76
2023-05-15T22:30:18.979Z,80
2023-05-15T23:00:07.667Z,81
2023-05-15T23:30:10.528Z,83
